»·PEaware :: UAL533 KGEG-KSEA

UAL533 :: KGEG-KSEA

FLIGHT INFORMATION

Flight Status: Arrived
Operator:
United Airlines
More flights by this operator :: More flights under this callsign
Pilot: Maximilliano F. (23467)
Aircraft: BOEING 737-800
(B738)
More flights by this aircraft type
Origin: KGEG Spokane Intl
United States
Destination: KSEA Seattle-Tacoma Intl
United States
More flights between these airports :: More routes between these airports
Route: +GEG6 TEMPL GLASR1
File this flight plan on PilotEdge
Remarks: RMK / SIMBRIEF
Altitude:
(Current/Filed)
34,000ft
Speed:
(Current/Filed)
461kts
Departed: 16-Oct-19 08:51 PM
Arrived: 16-Oct-19 09:37 PM
Distance/Time
Traveled:
193nm/0:46
Distance/Time
To Go:
Arrived

Flight Plot

Page will automatically refresh every two minutes.

Flight plan parsing failed; only flown route is shown


Map Options




Map Legend


Flown Route
Filed Route
Departure Airport
Arrival Airport
Navaid (VOR, NDB)
Fix

Horizontal Profiles

Position Reports

Time Latitude Longitude Heading Altitude Ground
Speed
16-Oct-19 20:26 47.623901 -117.536202 2 2391ft 0kts
16-Oct-19 20:27 47.623901 -117.536202 2 2391ft 0kts
16-Oct-19 20:28 47.623901 -117.536202 2 2391ft 0kts
16-Oct-19 20:29 47.623901 -117.536202 2 2391ft 0kts
16-Oct-19 20:30 47.623901 -117.536202 2 2391ft 0kts
16-Oct-19 20:31 47.623901 -117.536202 2 2391ft 0kts
16-Oct-19 20:32 47.623901 -117.536202 2 2391ft 0kts
16-Oct-19 20:33 47.623900 -117.536202 2 2391ft 0kts
16-Oct-19 20:34 47.623900 -117.536202 2 2391ft 0kts
16-Oct-19 20:35 47.623527 -117.536595 75 2391ft 2kts
16-Oct-19 20:36 47.623522 -117.536859 96 2391ft 0kts
16-Oct-19 20:37 47.623522 -117.536859 96 2391ft 0kts
16-Oct-19 20:38 47.623522 -117.536859 96 2391ft 0kts
16-Oct-19 20:39 47.623522 -117.536859 96 2391ft 0kts
16-Oct-19 20:41 47.623522 -117.536859 96 2391ft 0kts
16-Oct-19 20:42 47.623520 -117.536534 88 2390ft 5kts
16-Oct-19 20:43 47.624444 -117.534620 44 2391ft 7kts
16-Oct-19 20:44 47.625156 -117.532710 114 2391ft 7kts
16-Oct-19 20:45 47.626247 -117.529796 45 2391ft 16kts
16-Oct-19 20:46 47.629263 -117.525250 44 2390ft 16kts
16-Oct-19 20:47 47.632227 -117.520789 46 2391ft 9kts
16-Oct-19 20:48 47.631950 -117.519547 134 2390ft 0kts
16-Oct-19 20:49 47.631950 -117.519547 134 2390ft 0kts
16-Oct-19 20:50 47.631769 -117.519283 135 2391ft 6kts
16-Oct-19 20:51 47.628932 -117.521708 223 2391ft 74kts
16-Oct-19 20:52 47.596455 -117.569635 223 4010ft 197kts
16-Oct-19 20:53 47.586957 -117.649911 318 6738ft 260kts
16-Oct-19 20:54 47.619166 -117.738980 270 9965ft 258kts
16-Oct-19 20:55 47.625019 -117.847519 269 12934ft 286kts
16-Oct-19 20:56 47.632184 -117.973777 268 15761ft 322kts
16-Oct-19 20:57 47.640579 -118.109059 268 19084ft 334kts
16-Oct-19 20:57 47.648371 -118.222867 267 21593ft 343kts
16-Oct-19 20:59 47.659556 -118.386178 266 25043ft 348kts
16-Oct-19 21:00 47.669591 -118.531759 267 27396ft 363kts
16-Oct-19 21:00 47.678527 -118.654109 265 29628ft 362kts
16-Oct-19 21:02 47.689881 -118.831726 264 31910ft 376kts
16-Oct-19 21:02 47.698525 -118.958967 264 33721ft 377kts
16-Oct-19 21:03 47.708681 -119.115161 264 33770ft 376kts
16-Oct-19 21:05 47.718744 -119.295365 264 33794ft 377kts
16-Oct-19 21:06 47.728351 -119.450804 263 33720ft 376kts
16-Oct-19 21:06 47.737514 -119.580051 265 33782ft 378kts
16-Oct-19 21:07 47.750132 -119.734385 263 33754ft 377kts
16-Oct-19 21:08 47.762309 -119.890200 264 33743ft 378kts
16-Oct-19 21:09 47.774161 -120.045629 264 33778ft 378kts
16-Oct-19 21:10 47.785113 -120.200138 263 33784ft 376kts
16-Oct-19 21:11 47.796637 -120.354942 264 33774ft 377kts
16-Oct-19 21:12 47.807953 -120.511046 264 33772ft 379kts
16-Oct-19 21:13 47.818973 -120.665921 263 33778ft 379kts
16-Oct-19 21:14 47.829487 -120.818616 263 33781ft 381kts
16-Oct-19 21:15 47.839962 -120.975324 263 32972ft 381kts
16-Oct-19 21:16 47.850625 -121.134561 263 29084ft 390kts
16-Oct-19 21:17 47.860965 -121.294351 264 25621ft 384kts
16-Oct-19 21:18 47.871260 -121.455513 266 21600ft 388kts
16-Oct-19 21:19 47.880156 -121.613129 262 18191ft 371kts
16-Oct-19 21:20 47.847907 -121.749551 230 15031ft 342kts
16-Oct-19 21:21 47.781465 -121.846217 221 12105ft 322kts
16-Oct-19 21:22 47.723116 -121.924841 221 11991ft 258kts
16-Oct-19 21:23 47.671527 -121.994324 221 11947ft 227kts
16-Oct-19 21:24 47.627153 -122.054799 233 10694ft 214kts
16-Oct-19 21:25 47.630414 -122.144090 284 9159ft 227kts
16-Oct-19 21:26 47.692719 -122.163337 5 7991ft 257kts
16-Oct-19 21:27 47.762423 -122.158695 315 6958ft 240kts
16-Oct-19 21:28 47.780497 -122.243253 248 5425ft 211kts
16-Oct-19 21:29 47.733817 -122.284040 189 3980ft 203kts
16-Oct-19 21:30 47.677831 -122.294087 186 3057ft 202kts
16-Oct-19 21:31 47.623469 -122.303509 186 2972ft 182kts
16-Oct-19 21:32 47.574490 -122.307748 180 2669ft 163kts
16-Oct-19 21:33 47.531656 -122.307098 180 1755ft 144kts
16-Oct-19 21:34 47.491395 -122.307516 181 982ft 143kts
16-Oct-19 21:35 47.453787 -122.307856 180 434ft 98kts
16-Oct-19 21:36 47.445824 -122.306522 116 434ft 3kts
16-Oct-19 21:37 47.444349 -122.306336 180 434ft 9kts
16-Oct-19 21:38 47.443433 -122.305297 130 434ft 1kts
16-Oct-19 21:39 47.443047 -122.304234 101 434ft 1kts
16-Oct-19 21:40 47.442923 -122.303713 125 434ft 0kts
16-Oct-19 21:41 47.442890 -122.303647 127 434ft 0kts
16-Oct-19 21:42 47.442890 -122.303647 127 434ft 0kts

Navigation Log

Ident Type
Flight plan parsing failed, navigation log unavailable